Time;durP1;ratioP1;P1;durP2;ratioP2;P2;SDS_P1;SDS_P2;PMS_P1;PMS_P2;Temp;Humidity;BMP_temperature;BMP_pressure;BME280_temperature;BME280_humidity;BME280_pressure;Samples;Min_cycle;Max_cycle;Signal;HPM_P1;HPM_P2
2022/12/27 00:00:00;;;;;;;2.2;2.2;;;;;;;2.6;100.0;101950;;;;
2022/12/27 00:01:00;;;;;;;2.2;2.2;;;;;;;2.6;100.0;101950;;;;
2022/12/27 00:02:01;;;;;;;2.2;2.2;;;;;;;2.7;100.0;101950;;;;
2022/12/27 00:03:00;;;;;;;2.2;2.2;;;;;;;2.7;100.0;101950;;;;
2022/12/27 00:04:00;;;;;;;2.2;2.2;;;;;;;2.6;100.0;101950;;;;
2022/12/27 00:05:00;;;;;;;2.2;2.2;;;;;;;2.6;100.0;101950;;;;
2022/12/27 00:06:04;;;;;;;2.2;2.2;;;;;;;2.7;100.0;101950;;;;
2022/12/27 00:07:00;;;;;;;2.3;2.3;;;;;;;2.7;100.0;101950;;;;
2022/12/27 00:08:00;;;;;;;2.3;2.3;;;;;;;2.5;100.0;101950;;;;
2022/12/27 00:09:01;;;;;;;2.3;2.3;;;;;;;2.5;100.0;101950;;;;
2022/12/27 00:10:00;;;;;;;2.3;2.3;;;;;;;2.6;100.0;101960;;;;
2022/12/27 00:11:05;;;;;;;2.3;2.3;;;;;;;2.6;100.0;101960;;;;
2022/12/27 00:12:00;;;;;;;2.3;2.3;;;;;;;2.5;100.0;101960;;;;
2022/12/27 00:13:00;;;;;;;2.3;2.3;;;;;;;2.5;100.0;101960;;;;
2022/12/27 00:14:02;;;;;;;2.3;2.3;;;;;;;2.5;100.0;101960;;;;
2022/12/27 00:15:01;;;;;;;2.3;2.3;;;;;;;2.5;100.0;101960;;;;
2022/12/27 00:16:02;;;;;;;2.3;2.3;;;;;;;2.6;100.0;101960;;;;
2022/12/27 00:17:00;;;;;;;2.3;2.3;;;;;;;2.6;100.0;101960;;;;
2022/12/27 00:18:00;;;;;;;2.3;2.3;;;;;;;2.5;100.0;101960;;;;
2022/12/27 00:19:01;;;;;;;2.3;2.3;;;;;;;2.5;100.0;101960;;;;
2022/12/27 00:20:10;;;;;;;2.3;2.3;;;;;;;2.5;100.0;101960;;;;
2022/12/27 00:21:01;;;;;;;2.3;2.3;;;;;;;2.5;100.0;101960;;;;
2022/12/27 00:22:00;;;;;;;2.3;2.3;;;;;;;2.5;100.0;101960;;;;
2022/12/27 00:23:00;;;;;;;2.3;2.3;;;;;;;2.5;100.0;101960;;;;
2022/12/27 00:24:00;;;;;;;2.3;2.3;;;;;;;2.5;100.0;101960;;;;
2022/12/27 00:25:00;;;;;;;2.3;2.3;;;;;;;2.5;100.0;101960;;;;
2022/12/27 00:26:01;;;;;;;2.3;2.3;;;;;;;2.5;100.0;101970;;;;
2022/12/27 00:27:01;;;;;;;2.4;2.4;;;;;;;2.5;100.0;101970;;;;
2022/12/27 00:28:00;;;;;;;2.4;2.4;;;;;;;2.5;100.0;101970;;;;
2022/12/27 00:29:00;;;;;;;2.4;2.4;;;;;;;2.5;100.0;101970;;;;
2022/12/27 00:30:00;;;;;;;2.4;2.4;;;;;;;2.5;100.0;101970;;;;
2022/12/27 00:31:01;;;;;;;2.4;2.4;;;;;;;2.5;100.0;101970;;;;
2022/12/27 00:32:01;;;;;;;2.4;2.4;;;;;;;2.5;100.0;101970;;;;
2022/12/27 00:33:00;;;;;;;2.4;2.4;;;;;;;2.5;100.0;101970;;;;
2022/12/27 00:34:01;;;;;;;2.4;2.4;;;;;;;2.6;100.0;101980;;;;
2022/12/27 00:35:00;;;;;;;2.4;2.4;;;;;;;2.6;100.0;101980;;;;
2022/12/27 00:36:01;;;;;;;2.4;2.4;;;;;;;2.6;100.0;101980;;;;
2022/12/27 00:37:00;;;;;;;2.4;2.4;;;;;;;2.6;100.0;101980;;;;
2022/12/27 00:38:00;;;;;;;2.4;2.4;;;;;;;2.6;100.0;101980;;;;
2022/12/27 00:39:01;;;;;;;2.4;2.4;;;;;;;2.6;100.0;101980;;;;
2022/12/27 00:40:00;;;;;;;2.4;2.4;;;;;;;2.6;100.0;101980;;;;
2022/12/27 00:41:01;;;;;;;2.4;2.4;;;;;;;2.6;100.0;101980;;;;
2022/12/27 00:42:00;;;;;;;2.4;2.4;;;;;;;2.7;100.0;101980;;;;
2022/12/27 00:43:00;;;;;;;2.4;2.4;;;;;;;2.7;100.0;101980;;;;
2022/12/27 00:44:00;;;;;;;2.4;2.4;;;;;;;2.6;100.0;101990;;;;
2022/12/27 00:45:00;;;;;;;2.4;2.4;;;;;;;2.6;100.0;101990;;;;
2022/12/27 00:46:01;;;;;;;2.4;2.4;;;;;;;2.5;100.0;101990;;;;
2022/12/27 00:47:01;;;;;;;2.3;2.3;;;;;;;2.5;100.0;101990;;;;
2022/12/27 00:48:00;;;;;;;2.3;2.3;;;;;;;2.5;100.0;101990;;;;
2022/12/27 00:49:00;;;;;;;2.3;2.3;;;;;;;2.5;100.0;101990;;;;
2022/12/27 00:50:00;;;;;;;2.3;2.3;;;;;;;2.7;100.0;101990;;;;
2022/12/27 00:51:03;;;;;;;2.3;2.3;;;;;;;2.7;100.0;101990;;;;
2022/12/27 00:52:00;;;;;;;2.3;2.3;;;;;;;2.6;100.0;102000;;;;
2022/12/27 00:53:00;;;;;;;2.3;2.3;;;;;;;2.6;100.0;102000;;;;
2022/12/27 00:54:00;;;;;;;2.3;2.3;;;;;;;2.6;100.0;102000;;;;
2022/12/27 00:55:00;;;;;;;2.3;2.3;;;;;;;2.6;100.0;102000;;;;
2022/12/27 00:56:04;;;;;;;2.3;2.3;;;;;;;2.6;100.0;102000;;;;
2022/12/27 00:57:00;;;;;;;2.3;2.3;;;;;;;2.6;100.0;102000;;;;
2022/12/27 00:58:00;;;;;;;2.3;2.3;;;;;;;2.5;100.0;102000;;;;
2022/12/27 00:59:01;;;;;;;2.3;2.3;;;;;;;2.5;100.0;102000;;;;
2022/12/27 01:00:09;;;;;;;2.3;2.3;;;;;;;2.5;100.0;102000;;;;
2022/12/27 01:01:09;;;;;;;2.3;2.3;;;;;;;2.5;100.0;102000;;;;
2022/12/27 01:02:02;;;;;;;2.3;2.3;;;;;;;2.6;100.0;102000;;;;
2022/12/27 01:03:00;;;;;;;2.3;2.3;;;;;;;2.6;100.0;102000;;;;
2022/12/27 01:04:02;;;;;;;2.3;2.3;;;;;;;2.5;100.0;102000;;;;
2022/12/27 01:05:00;;;;;;;2.3;2.3;;;;;;;2.5;100.0;102000;;;;
2022/12/27 01:06:05;;;;;;;2.3;2.3;;;;;;;2.6;100.0;102000;;;;
2022/12/27 01:07:00;;;;;;;2.3;2.3;;;;;;;2.6;100.0;102000;;;;
2022/12/27 01:08:00;;;;;;;2.3;2.3;;;;;;;2.5;100.0;102000;;;;
2022/12/27 01:09:01;;;;;;;2.3;2.3;;;;;;;2.5;100.0;102000;;;;
2022/12/27 01:10:00;;;;;;;2.3;2.3;;;;;;;2.6;100.0;102000;;;;
2022/12/27 01:11:00;;;;;;;2.3;2.3;;;;;;;2.6;100.0;102000;;;;
2022/12/27 01:12:00;;;;;;;2.3;2.3;;;;;;;2.5;100.0;102000;;;;
2022/12/27 01:13:01;;;;;;;2.3;2.3;;;;;;;2.5;100.0;102000;;;;
2022/12/27 01:14:02;;;;;;;2.3;2.3;;;;;;;2.6;100.0;102000;;;;
2022/12/27 01:15:00;;;;;;;2.3;2.3;;;;;;;2.6;100.0;102000;;;;
2022/12/27 01:16:00;;;;;;;2.3;2.3;;;;;;;2.6;100.0;101990;;;;
2022/12/27 01:17:00;;;;;;;2.3;2.3;;;;;;;2.6;100.0;101990;;;;
2022/12/27 01:18:00;;;;;;;2.3;2.3;;;;;;;2.6;100.0;102000;;;;
2022/12/27 01:19:00;;;;;;;2.3;2.3;;;;;;;2.6;100.0;102000;;;;
2022/12/27 01:20:00;;;;;;;2.3;2.3;;;;;;;2.5;100.0;102000;;;;
2022/12/27 01:21:04;;;;;;;2.3;2.3;;;;;;;2.5;100.0;102000;;;;
2022/12/27 01:22:01;;;;;;;2.3;2.3;;;;;;;2.5;100.0;102000;;;;
2022/12/27 01:23:00;;;;;;;2.3;2.3;;;;;;;2.5;100.0;102000;;;;
2022/12/27 01:24:00;;;;;;;2.3;2.3;;;;;;;2.6;100.0;102000;;;;
2022/12/27 01:25:00;;;;;;;2.3;2.3;;;;;;;2.6;100.0;102000;;;;
2022/12/27 01:26:01;;;;;;;2.3;2.3;;;;;;;2.5;100.0;102000;;;;
2022/12/27 01:27:00;;;;;;;2.5;2.5;;;;;;;2.5;100.0;102000;;;;
2022/12/27 01:28:00;;;;;;;2.5;2.5;;;;;;;2.6;100.0;102000;;;;
2022/12/27 01:29:00;;;;;;;2.5;2.5;;;;;;;2.6;100.0;102000;;;;
2022/12/27 01:30:01;;;;;;;2.5;2.5;;;;;;;2.6;100.0;102000;;;;
2022/12/27 01:31:09;;;;;;;2.5;2.5;;;;;;;2.6;100.0;102000;;;;
2022/12/27 01:32:00;;;;;;;2.5;2.5;;;;;;;2.6;100.0;102010;;;;
2022/12/27 01:33:00;;;;;;;2.5;2.5;;;;;;;2.6;100.0;102010;;;;
2022/12/27 01:34:00;;;;;;;2.5;2.5;;;;;;;2.6;100.0;102010;;;;
2022/12/27 01:35:00;;;;;;;2.5;2.5;;;;;;;2.6;100.0;102010;;;;
2022/12/27 01:36:10;;;;;;;2.5;2.5;;;;;;;2.6;100.0;102020;;;;
2022/12/27 01:37:00;;;;;;;2.5;2.5;;;;;;;2.6;100.0;102020;;;;
2022/12/27 01:38:00;;;;;;;2.5;2.5;;;;;;;2.6;100.0;102020;;;;
2022/12/27 01:39:00;;;;;;;2.5;2.5;;;;;;;2.6;100.0;102020;;;;
2022/12/27 01:40:00;;;;;;;2.5;2.5;;;;;;;2.6;100.0;102020;;;;
2022/12/27 01:42:50;;;;;;;2.5;2.5;;;;;;;2.6;100.0;102020;;;;
2022/12/27 01:43:00;;;;;;;2.5;2.5;;;;;;;2.6;100.0;102030;;;;
2022/12/27 01:44:00;;;;;;;2.5;2.5;;;;;;;2.5;100.0;102030;;;;
2022/12/27 01:45:01;;;;;;;2.5;2.5;;;;;;;2.5;100.0;102030;;;;
2022/12/27 01:46:00;;;;;;;2.5;2.5;;;;;;;2.6;100.0;102040;;;;
2022/12/27 01:47:02;;;;;;;2.8;2.7;;;;;;;2.6;100.0;102040;;;;
2022/12/27 01:48:06;;;;;;;2.8;2.7;;;;;;;2.5;100.0;102030;;;;
2022/12/27 01:49:05;;;;;;;2.8;2.7;;;;;;;2.5;100.0;102030;;;;
2022/12/27 01:50:01;;;;;;;2.8;2.7;;;;;;;2.7;100.0;102030;;;;
2022/12/27 01:51:03;;;;;;;2.8;2.7;;;;;;;2.7;100.0;102030;;;;
2022/12/27 01:52:00;;;;;;;2.8;2.7;;;;;;;2.6;100.0;102030;;;;
2022/12/27 01:53:00;;;;;;;2.8;2.7;;;;;;;2.6;100.0;102030;;;;
2022/12/27 01:54:00;;;;;;;2.8;2.7;;;;;;;2.6;100.0;102040;;;;
2022/12/27 01:55:04;;;;;;;2.8;2.7;;;;;;;2.6;100.0;102040;;;;
2022/12/27 01:56:00;;;;;;;2.8;2.7;;;;;;;2.6;100.0;102040;;;;
2022/12/27 01:57:01;;;;;;;2.8;2.7;;;;;;;2.6;100.0;102040;;;;
2022/12/27 01:58:04;;;;;;;2.8;2.7;;;;;;;2.6;100.0;102050;;;;
2022/12/27 01:59:03;;;;;;;2.8;2.7;;;;;;;2.6;100.0;102050;;;;
2022/12/27 02:00:00;;;;;;;2.8;2.7;;;;;;;2.6;100.0;102050;;;;
2022/12/27 02:01:02;;;;;;;2.8;2.7;;;;;;;2.6;100.0;102050;;;;
2022/12/27 02:02:01;;;;;;;2.8;2.7;;;;;;;2.7;100.0;102050;;;;
2022/12/27 02:03:03;;;;;;;2.8;2.7;;;;;;;2.7;100.0;102050;;;;
2022/12/27 02:04:04;;;;;;;2.8;2.7;;;;;;;2.6;100.0;102060;;;;
2022/12/27 02:05:01;;;;;;;2.8;2.7;;;;;;;2.6;100.0;102060;;;;
2022/12/27 02:06:01;;;;;;;2.3;2.3;;;;;;;2.6;100.0;102050;;;;
2022/12/27 02:07:00;;;;;;;2.3;2.3;;;;;;;2.6;100.0;102050;;;;
2022/12/27 02:08:01;;;;;;;2.3;2.3;;;;;;;2.6;100.0;102050;;;;
2022/12/27 02:09:00;;;;;;;2.3;2.3;;;;;;;2.6;100.0;102050;;;;
2022/12/27 02:10:01;;;;;;;2.3;2.3;;;;;;;2.7;100.0;102060;;;;
2022/12/27 02:11:01;;;;;;;2.3;2.3;;;;;;;2.7;100.0;102060;;;;
2022/12/27 02:12:02;;;;;;;2.3;2.3;;;;;;;2.7;100.0;102060;;;;
2022/12/27 02:13:02;;;;;;;2.3;2.3;;;;;;;2.7;100.0;102060;;;;
2022/12/27 02:14:00;;;;;;;2.3;2.3;;;;;;;2.6;100.0;102070;;;;
2022/12/27 02:15:01;;;;;;;2.3;2.3;;;;;;;2.6;100.0;102070;;;;
2022/12/27 02:16:00;;;;;;;2.3;2.3;;;;;;;2.7;100.0;102070;;;;
2022/12/27 02:17:03;;;;;;;2.3;2.3;;;;;;;2.7;100.0;102070;;;;
2022/12/27 02:18:00;;;;;;;2.3;2.3;;;;;;;2.6;100.0;102060;;;;
2022/12/27 02:19:01;;;;;;;2.3;2.3;;;;;;;2.6;100.0;102060;;;;
2022/12/27 02:20:05;;;;;;;2.3;2.3;;;;;;;2.6;100.0;102060;;;;
2022/12/27 02:21:08;;;;;;;2.3;2.3;;;;;;;2.6;100.0;102060;;;;
2022/12/27 02:22:10;;;;;;;2.3;2.3;;;;;;;2.7;100.0;102060;;;;
2022/12/27 02:24:10;;;;;;;2.3;2.3;;;;;;;2.6;100.0;102060;;;;
2022/12/27 02:25:10;;;;;;;2.3;2.3;;;;;;;2.6;100.0;102060;;;;
2022/12/27 02:26:09;;;;;;;2.7;2.6;;;;;;;2.7;100.0;102060;;;;
2022/12/27 02:27:03;;;;;;;2.7;2.6;;;;;;;2.7;100.0;102060;;;;
2022/12/27 02:28:08;;;;;;;2.7;2.6;;;;;;;2.7;100.0;102060;;;;
2022/12/27 02:29:00;;;;;;;2.7;2.6;;;;;;;2.7;100.0;102060;;;;
2022/12/27 02:30:01;;;;;;;2.7;2.6;;;;;;;2.7;100.0;102060;;;;
2022/12/27 02:31:07;;;;;;;2.7;2.6;;;;;;;2.7;100.0;102060;;;;
2022/12/27 02:32:10;;;;;;;2.7;2.6;;;;;;;2.7;100.0;102070;;;;
2022/12/27 02:33:04;;;;;;;2.7;2.6;;;;;;;2.7;100.0;102070;;;;
2022/12/27 02:34:03;;;;;;;2.7;2.6;;;;;;;2.8;100.0;102070;;;;
2022/12/27 02:35:10;;;;;;;2.7;2.6;;;;;;;2.8;100.0;102070;;;;
2022/12/27 02:36:03;;;;;;;2.7;2.6;;;;;;;2.8;100.0;102070;;;;
2022/12/27 02:37:03;;;;;;;2.7;2.6;;;;;;;2.8;100.0;102070;;;;
2022/12/27 02:38:05;;;;;;;2.7;2.6;;;;;;;2.8;100.0;102070;;;;
2022/12/27 02:39:01;;;;;;;2.7;2.6;;;;;;;2.8;100.0;102070;;;;
2022/12/27 02:53:02;;;;;;;2.7;2.6;;;;;;;2.8;100.0;102080;;;;
2022/12/27 02:53:07;;;;;;;2.4;2.4;;;;;;;2.8;100.0;102080;;;;
2022/12/27 02:54:05;;;;;;;2.4;2.4;;;;;;;2.9;100.0;102080;;;;
2022/12/27 02:55:10;;;;;;;2.4;2.4;;;;;;;2.9;100.0;102080;;;;
2022/12/27 02:57:08;;;;;;;2.4;2.4;;;;;;;2.9;100.0;102080;;;;
2022/12/27 02:58:03;;;;;;;2.4;2.4;;;;;;;2.9;100.0;102070;;;;
2022/12/27 02:59:10;;;;;;;2.4;2.4;;;;;;;2.9;100.0;102070;;;;
2022/12/27 03:04:10;;;;;;;2.4;2.4;;;;;;;2.8;100.0;102070;;;;
2022/12/27 03:05:10;;;;;;;2.4;2.4;;;;;;;2.8;100.0;102070;;;;
2022/12/27 03:07:09;;;;;;;2.2;2.2;;;;;;;2.8;100.0;102070;;;;
2022/12/27 03:08:04;;;;;;;2.2;2.2;;;;;;;2.8;100.0;102070;;;;
2022/12/27 03:09:01;;;;;;;2.2;2.2;;;;;;;2.8;100.0;102070;;;;
2022/12/27 03:16:06;;;;;;;2.2;2.2;;;;;;;2.8;100.0;102070;;;;
2022/12/27 03:17:06;;;;;;;2.2;2.2;;;;;;;2.8;100.0;102070;;;;
2022/12/27 03:18:05;;;;;;;2.2;2.2;;;;;;;2.7;100.0;102070;;;;
2022/12/27 03:19:04;;;;;;;2.2;2.2;;;;;;;2.7;100.0;102070;;;;
2022/12/27 03:26:02;;;;;;;2.2;2.2;;;;;;;2.8;100.0;102070;;;;
2022/12/27 03:27:01;;;;;;;2.2;2.2;;;;;;;2.8;100.0;102070;;;;
2022/12/27 03:34:30;;;;;;;2.2;2.2;;;;;;;2.8;100.0;102090;;;;
2022/12/27 03:35:06;;;;;;;2.2;2.2;;;;;;;2.8;100.0;102090;;;;
2022/12/27 03:38:01;;;;;;;2.2;2.2;;;;;;;2.9;100.0;102090;;;;
2022/12/27 03:39:06;;;;;;;2.2;2.2;;;;;;;2.9;100.0;102090;;;;
2022/12/27 03:40:04;;;;;;;2.2;2.2;;;;;;;2.9;100.0;102090;;;;
2022/12/27 03:43:11;;;;;;;2.2;2.2;;;;;;;2.8;100.0;102090;;;;
2022/12/27 03:44:22;;;;;;;2.2;2.2;;;;;;;2.9;100.0;102090;;;;
2022/12/27 03:45:00;;;;;;;2.2;2.2;;;;;;;2.9;100.0;102090;;;;
2022/12/27 03:47:04;;;;;;;2.5;2.5;;;;;;;2.9;100.0;102090;;;;
2022/12/27 03:48:04;;;;;;;2.5;2.5;;;;;;;2.9;100.0;102100;;;;
2022/12/27 03:49:10;;;;;;;2.5;2.5;;;;;;;2.9;100.0;102100;;;;
2022/12/27 03:50:07;;;;;;;2.5;2.5;;;;;;;2.8;100.0;102100;;;;
2022/12/27 03:51:03;;;;;;;2.5;2.5;;;;;;;2.8;100.0;102100;;;;
2022/12/27 03:52:01;;;;;;;2.5;2.5;;;;;;;2.8;100.0;102110;;;;
2022/12/27 03:53:05;;;;;;;2.5;2.5;;;;;;;2.8;100.0;102110;;;;
2022/12/27 03:54:05;;;;;;;2.5;2.5;;;;;;;2.8;100.0;102110;;;;
2022/12/27 03:55:01;;;;;;;2.5;2.5;;;;;;;2.8;100.0;102110;;;;
2022/12/27 03:56:01;;;;;;;2.5;2.5;;;;;;;2.9;100.0;102110;;;;
2022/12/27 03:57:03;;;;;;;2.5;2.5;;;;;;;2.9;100.0;102110;;;;
2022/12/27 03:58:00;;;;;;;2.5;2.5;;;;;;;2.9;100.0;102100;;;;
2022/12/27 03:59:01;;;;;;;2.5;2.5;;;;;;;2.9;100.0;102100;;;;
2022/12/27 04:00:00;;;;;;;2.5;2.5;;;;;;;2.9;100.0;102100;;;;
2022/12/27 04:01:00;;;;;;;2.5;2.5;;;;;;;2.9;100.0;102100;;;;
2022/12/27 04:02:01;;;;;;;2.5;2.5;;;;;;;2.9;100.0;102100;;;;
2022/12/27 04:03:00;;;;;;;2.5;2.5;;;;;;;2.9;100.0;102100;;;;
2022/12/27 04:04:00;;;;;;;2.5;2.5;;;;;;;2.9;100.0;102100;;;;
2022/12/27 04:05:00;;;;;;;2.5;2.5;;;;;;;2.9;100.0;102100;;;;
2022/12/27 04:06:00;;;;;;;2.2;2.2;;;;;;;3.0;100.0;102110;;;;
2022/12/27 04:07:01;;;;;;;2.2;2.2;;;;;;;3.0;100.0;102110;;;;
2022/12/27 04:35:00;;;;;;;3.1;3.0;;;;;;;3.0;100.0;102120;;;;
2022/12/27 04:36:06;;;;;;;3.1;3.0;;;;;;;3.0;100.0;102130;;;;
2022/12/27 04:37:01;;;;;;;3.1;3.0;;;;;;;3.0;100.0;102130;;;;
2022/12/27 04:38:00;;;;;;;3.1;3.0;;;;;;;3.0;100.0;102120;;;;
2022/12/27 04:39:00;;;;;;;3.1;3.0;;;;;;;3.0;100.0;102120;;;;
2022/12/27 04:55:10;;;;;;;2.3;2.3;;;;;;;3.0;100.0;102120;;;;
2022/12/27 04:56:01;;;;;;;2.3;2.3;;;;;;;3.1;100.0;102130;;;;
2022/12/27 04:57:00;;;;;;;2.3;2.3;;;;;;;3.1;100.0;102130;;;;
2022/12/27 04:58:00;;;;;;;2.3;2.3;;;;;;;3.0;100.0;102120;;;;
2022/12/27 05:02:01;;;;;;;2.3;2.3;;;;;;;3.0;100.0;102120;;;;
2022/12/27 05:03:02;;;;;;;2.3;2.3;;;;;;;3.0;100.0;102120;;;;
2022/12/27 05:04:00;;;;;;;2.3;2.3;;;;;;;3.0;100.0;102130;;;;
2022/12/27 05:05:01;;;;;;;2.3;2.3;;;;;;;3.0;100.0;102130;;;;
2022/12/27 05:06:01;;;;;;;2.2;2.2;;;;;;;3.1;100.0;102130;;;;
2022/12/27 05:13:58;;;;;;;2.2;2.2;;;;;;;3.1;100.0;102130;;;;
2022/12/27 05:14:01;;;;;;;2.2;2.2;;;;;;;3.0;100.0;102140;;;;
2022/12/27 05:15:00;;;;;;;2.2;2.2;;;;;;;3.0;100.0;102140;;;;
2022/12/27 05:16:00;;;;;;;2.2;2.2;;;;;;;3.0;100.0;102140;;;;
2022/12/27 05:17:00;;;;;;;2.2;2.2;;;;;;;3.0;100.0;102140;;;;
2022/12/27 05:18:00;;;;;;;2.2;2.2;;;;;;;3.0;100.0;102150;;;;
2022/12/27 05:19:00;;;;;;;2.2;2.2;;;;;;;3.0;100.0;102150;;;;
2022/12/27 05:20:00;;;;;;;2.2;2.2;;;;;;;3.0;100.0;102160;;;;
2022/12/27 05:21:01;;;;;;;2.2;2.2;;;;;;;3.0;100.0;102160;;;;
2022/12/27 05:26:00;;;;;;;2.2;2.2;;;;;;;3.0;100.0;102140;;;;
2022/12/27 05:27:00;;;;;;;2.2;2.2;;;;;;;3.0;100.0;102140;;;;
2022/12/27 05:28:01;;;;;;;2.2;2.2;;;;;;;3.0;100.0;102150;;;;
2022/12/27 05:29:00;;;;;;;2.2;2.2;;;;;;;3.0;100.0;102150;;;;
2022/12/27 05:30:00;;;;;;;2.2;2.2;;;;;;;2.9;100.0;102150;;;;
2022/12/27 05:31:02;;;;;;;2.2;2.2;;;;;;;2.9;100.0;102150;;;;
2022/12/27 05:32:00;;;;;;;2.2;2.2;;;;;;;3.0;100.0;102150;;;;
2022/12/27 05:33:00;;;;;;;2.2;2.2;;;;;;;3.0;100.0;102150;;;;
2022/12/27 05:34:00;;;;;;;2.2;2.2;;;;;;;2.9;100.0;102150;;;;
2022/12/27 05:35:00;;;;;;;2.2;2.2;;;;;;;2.9;100.0;102150;;;;
2022/12/27 05:36:00;;;;;;;2.2;2.2;;;;;;;3.0;100.0;102160;;;;
2022/12/27 05:37:00;;;;;;;2.2;2.2;;;;;;;3.0;100.0;102160;;;;
2022/12/27 05:38:01;;;;;;;2.2;2.2;;;;;;;2.9;100.0;102160;;;;
2022/12/27 05:39:00;;;;;;;2.2;2.2;;;;;;;2.9;100.0;102160;;;;
2022/12/27 05:40:00;;;;;;;2.2;2.2;;;;;;;3.0;100.0;102170;;;;
2022/12/27 05:41:01;;;;;;;2.2;2.2;;;;;;;3.0;100.0;102170;;;;
2022/12/27 05:42:01;;;;;;;2.2;2.2;;;;;;;3.0;100.0;102170;;;;
2022/12/27 05:43:01;;;;;;;2.2;2.2;;;;;;;3.0;100.0;102170;;;;
2022/12/27 05:44:06;;;;;;;2.2;2.2;;;;;;;2.9;100.0;102170;;;;
2022/12/27 05:45:00;;;;;;;3.0;2.9;;;;;;;2.9;100.0;102170;;;;
2022/12/27 05:46:03;;;;;;;3.0;2.9;;;;;;;2.9;100.0;102170;;;;
2022/12/27 05:47:00;;;;;;;3.0;2.9;;;;;;;2.9;100.0;102170;;;;
2022/12/27 05:48:00;;;;;;;3.0;2.9;;;;;;;3.0;100.0;102170;;;;
2022/12/27 05:49:00;;;;;;;3.0;2.9;;;;;;;3.0;100.0;102170;;;;
2022/12/27 05:50:00;;;;;;;3.0;2.9;;;;;;;2.9;100.0;102170;;;;
2022/12/27 05:51:09;;;;;;;3.0;2.9;;;;;;;2.9;100.0;102170;;;;
2022/12/27 05:52:00;;;;;;;3.0;2.9;;;;;;;2.9;100.0;102180;;;;
2022/12/27 05:53:00;;;;;;;3.0;2.9;;;;;;;2.9;100.0;102180;;;;
2022/12/27 05:54:00;;;;;;;3.0;2.9;;;;;;;2.9;100.0;102170;;;;
2022/12/27 05:55:00;;;;;;;3.0;2.9;;;;;;;2.9;100.0;102170;;;;
2022/12/27 05:56:01;;;;;;;3.0;2.9;;;;;;;3.0;100.0;102180;;;;
2022/12/27 05:57:00;;;;;;;3.0;2.9;;;;;;;3.0;100.0;102180;;;;
2022/12/27 05:58:00;;;;;;;3.0;2.9;;;;;;;2.9;100.0;102180;;;;
2022/12/27 05:59:00;;;;;;;3.0;2.9;;;;;;;2.9;100.0;102180;;;;
2022/12/27 06:00:00;;;;;;;3.0;2.9;;;;;;;2.9;100.0;102180;;;;
2022/12/27 06:01:06;;;;;;;3.0;2.9;;;;;;;2.9;100.0;102180;;;;
2022/12/27 06:02:01;;;;;;;3.0;2.9;;;;;;;2.9;100.0;102180;;;;
2022/12/27 06:03:01;;;;;;;3.0;2.9;;;;;;;2.9;100.0;102180;;;;
2022/12/27 06:04:00;;;;;;;3.0;2.9;;;;;;;2.9;100.0;102190;;;;
2022/12/27 06:05:00;;;;;;;2.3;2.3;;;;;;;2.9;100.0;102190;;;;
2022/12/27 06:06:01;;;;;;;2.3;2.3;;;;;;;3.0;100.0;102190;;;;
2022/12/27 06:07:00;;;;;;;2.3;2.3;;;;;;;3.0;100.0;102190;;;;
2022/12/27 06:08:00;;;;;;;2.3;2.3;;;;;;;3.0;100.0;102190;;;;
2022/12/27 06:09:00;;;;;;;2.3;2.3;;;;;;;3.0;100.0;102190;;;;
2022/12/27 06:10:00;;;;;;;2.3;2.3;;;;;;;2.9;100.0;102190;;;;
2022/12/27 06:11:04;;;;;;;2.3;2.3;;;;;;;2.9;100.0;102190;;;;
2022/12/27 06:12:00;;;;;;;2.3;2.3;;;;;;;3.0;100.0;102190;;;;
2022/12/27 06:13:01;;;;;;;2.3;2.3;;;;;;;3.0;100.0;102190;;;;
2022/12/27 06:14:00;;;;;;;2.3;2.3;;;;;;;2.9;100.0;102190;;;;
2022/12/27 06:15:00;;;;;;;2.3;2.3;;;;;;;2.9;100.0;102190;;;;
2022/12/27 06:16:01;;;;;;;2.3;2.3;;;;;;;2.9;100.0;102190;;;;
2022/12/27 06:17:00;;;;;;;2.3;2.3;;;;;;;2.9;100.0;102190;;;;
2022/12/27 06:18:02;;;;;;;2.3;2.3;;;;;;;2.9;100.0;102190;;;;
2022/12/27 06:19:00;;;;;;;2.3;2.3;;;;;;;2.9;100.0;102190;;;;
2022/12/27 06:20:00;;;;;;;2.3;2.3;;;;;;;3.0;100.0;102190;;;;
2022/12/27 06:21:02;;;;;;;2.3;2.3;;;;;;;3.0;100.0;102190;;;;
2022/12/27 06:22:00;;;;;;;2.3;2.3;;;;;;;3.0;100.0;102190;;;;
2022/12/27 06:23:00;;;;;;;2.3;2.3;;;;;;;3.0;100.0;102190;;;;
2022/12/27 06:24:00;;;;;;;2.3;2.3;;;;;;;3.0;100.0;102190;;;;
2022/12/27 06:25:00;;;;;;;2.3;2.3;;;;;;;3.0;100.0;102190;;;;
2022/12/27 06:26:04;;;;;;;2.3;2.3;;;;;;;2.9;100.0;102190;;;;
2022/12/27 06:27:00;;;;;;;2.3;2.3;;;;;;;2.9;100.0;102190;;;;
2022/12/27 06:28:00;;;;;;;2.3;2.3;;;;;;;2.9;100.0;102190;;;;
2022/12/27 06:29:00;;;;;;;2.3;2.3;;;;;;;2.9;100.0;102190;;;;
2022/12/27 06:30:00;;;;;;;2.3;2.3;;;;;;;2.9;100.0;102180;;;;
2022/12/27 06:31:01;;;;;;;2.3;2.3;;;;;;;2.9;100.0;102180;;;;
2022/12/27 06:32:00;;;;;;;2.3;2.3;;;;;;;3.0;100.0;102190;;;;
2022/12/27 06:33:00;;;;;;;2.3;2.3;;;;;;;3.0;100.0;102190;;;;
2022/12/27 06:34:00;;;;;;;2.3;2.3;;;;;;;3.0;100.0;102190;;;;
2022/12/27 06:35:00;;;;;;;2.3;2.3;;;;;;;3.0;100.0;102190;;;;
2022/12/27 06:36:09;;;;;;;2.3;2.3;;;;;;;3.0;100.0;102190;;;;
2022/12/27 06:37:00;;;;;;;2.3;2.3;;;;;;;3.0;100.0;102190;;;;
2022/12/27 06:38:00;;;;;;;2.3;2.3;;;;;;;3.0;100.0;102190;;;;
2022/12/27 06:39:00;;;;;;;2.3;2.3;;;;;;;3.0;100.0;102190;;;;
2022/12/27 06:40:00;;;;;;;2.3;2.3;;;;;;;3.0;100.0;102190;;;;
2022/12/27 06:41:02;;;;;;;2.3;2.3;;;;;;;3.0;100.0;102190;;;;
2022/12/27 06:42:00;;;;;;;2.3;2.3;;;;;;;2.9;100.0;102190;;;;
2022/12/27 06:43:00;;;;;;;2.3;2.3;;;;;;;2.9;100.0;102190;;;;
2022/12/27 06:44:00;;;;;;;2.3;2.3;;;;;;;3.0;100.0;102190;;;;
2022/12/27 06:45:00;;;;;;;2.6;2.5;;;;;;;3.0;100.0;102190;;;;
2022/12/27 06:46:02;;;;;;;2.6;2.5;;;;;;;3.0;100.0;102190;;;;
2022/12/27 06:47:00;;;;;;;2.6;2.5;;;;;;;3.0;100.0;102190;;;;
2022/12/27 06:48:00;;;;;;;2.6;2.5;;;;;;;3.0;100.0;102200;;;;
2022/12/27 06:49:00;;;;;;;2.6;2.5;;;;;;;3.0;100.0;102200;;;;
2022/12/27 06:50:00;;;;;;;2.6;2.5;;;;;;;3.0;100.0;102210;;;;
2022/12/27 06:51:05;;;;;;;2.6;2.5;;;;;;;3.0;100.0;102210;;;;
2022/12/27 06:52:00;;;;;;;2.6;2.5;;;;;;;3.0;100.0;102210;;;;
2022/12/27 06:53:00;;;;;;;2.6;2.5;;;;;;;3.0;100.0;102210;;;;
2022/12/27 06:54:00;;;;;;;2.6;2.5;;;;;;;2.9;100.0;102210;;;;
2022/12/27 06:55:00;;;;;;;2.6;2.5;;;;;;;2.9;100.0;102210;;;;
2022/12/27 06:56:02;;;;;;;2.6;2.5;;;;;;;3.0;100.0;102220;;;;
2022/12/27 06:57:00;;;;;;;2.6;2.5;;;;;;;3.0;100.0;102220;;;;
2022/12/27 06:58:00;;;;;;;2.6;2.5;;;;;;;3.0;100.0;102220;;;;
2022/12/27 06:59:00;;;;;;;2.6;2.5;;;;;;;3.0;100.0;102220;;;;
2022/12/27 07:00:00;;;;;;;2.6;2.5;;;;;;;3.0;100.0;102230;;;;
2022/12/27 07:01:09;;;;;;;2.6;2.5;;;;;;;3.0;100.0;102230;;;;
2022/12/27 07:02:01;;;;;;;2.6;2.5;;;;;;;3.0;100.0;102220;;;;
2022/12/27 07:03:02;;;;;;;2.6;2.5;;;;;;;3.0;100.0;102220;;;;
2022/12/27 07:04:00;;;;;;;2.6;2.5;;;;;;;2.9;100.0;102220;;;;
2022/12/27 07:05:00;;;;;;;6.8;3.5;;;;;;;2.9;100.0;102220;;;;
2022/12/27 07:06:02;;;;;;;6.8;3.5;;;;;;;3.0;100.0;102210;;;;
2022/12/27 07:07:00;;;;;;;6.8;3.5;;;;;;;3.0;100.0;102210;;;;
2022/12/27 07:08:00;;;;;;;6.8;3.5;;;;;;;2.9;100.0;102210;;;;
2022/12/27 07:09:00;;;;;;;6.8;3.5;;;;;;;2.9;100.0;102210;;;;
2022/12/27 07:10:00;;;;;;;6.8;3.5;;;;;;;2.9;100.0;102210;;;;
2022/12/27 07:11:01;;;;;;;6.8;3.5;;;;;;;2.9;100.0;102210;;;;
2022/12/27 07:12:00;;;;;;;6.8;3.5;;;;;;;2.9;100.0;102220;;;;
2022/12/27 07:13:00;;;;;;;6.8;3.5;;;;;;;2.9;100.0;102220;;;;
2022/12/27 07:14:01;;;;;;;6.8;3.5;;;;;;;2.9;100.0;102220;;;;
2022/12/27 07:15:00;;;;;;;6.8;3.5;;;;;;;2.9;100.0;102220;;;;
2022/12/27 07:16:02;;;;;;;6.8;3.5;;;;;;;2.8;100.0;102210;;;;
2022/12/27 07:17:00;;;;;;;6.8;3.5;;;;;;;2.8;100.0;102210;;;;
2022/12/27 07:18:00;;;;;;;6.8;3.5;;;;;;;2.8;100.0;102220;;;;
2022/12/27 07:19:00;;;;;;;6.8;3.5;;;;;;;2.8;100.0;102220;;;;
2022/12/27 07:20:01;;;;;;;6.8;3.5;;;;;;;2.8;100.0;102220;;;;
2022/12/27 07:21:05;;;;;;;6.8;3.5;;;;;;;2.8;100.0;102220;;;;
2022/12/27 07:22:00;;;;;;;6.8;3.5;;;;;;;2.8;100.0;102220;;;;
2022/12/27 07:23:00;;;;;;;6.8;3.5;;;;;;;2.8;100.0;102220;;;;
2022/12/27 07:24:00;;;;;;;6.8;3.5;;;;;;;2.7;100.0;102230;;;;
2022/12/27 07:25:00;;;;;;;2.6;2.5;;;;;;;2.7;100.0;102230;;;;
2022/12/27 07:26:02;;;;;;;2.6;2.5;;;;;;;2.7;100.0;102240;;;;
2022/12/27 07:27:01;;;;;;;2.6;2.5;;;;;;;2.7;100.0;102240;;;;
2022/12/27 07:28:00;;;;;;;2.6;2.5;;;;;;;2.7;100.0;102240;;;;
2022/12/27 07:29:01;;;;;;;2.6;2.5;;;;;;;2.7;100.0;102240;;;;
2022/12/27 07:30:01;;;;;;;2.6;2.5;;;;;;;2.7;100.0;102240;;;;
2022/12/27 07:31:05;;;;;;;2.6;2.5;;;;;;;2.7;100.0;102240;;;;
2022/12/27 07:32:00;;;;;;;2.6;2.5;;;;;;;2.7;100.0;102240;;;;
2022/12/27 07:33:00;;;;;;;2.6;2.5;;;;;;;2.7;100.0;102240;;;;
2022/12/27 07:34:02;;;;;;;2.6;2.5;;;;;;;2.7;100.0;102240;;;;
2022/12/27 07:35:00;;;;;;;2.6;2.5;;;;;;;2.7;100.0;102240;;;;
2022/12/27 07:36:01;;;;;;;2.6;2.5;;;;;;;2.7;100.0;102250;;;;
2022/12/27 07:37:00;;;;;;;2.6;2.5;;;;;;;2.7;100.0;102250;;;;
2022/12/27 07:38:00;;;;;;;2.6;2.5;;;;;;;2.7;100.0;102250;;;;
2022/12/27 07:39:00;;;;;;;2.6;2.5;;;;;;;2.7;100.0;102250;;;;
2022/12/27 07:40:00;;;;;;;2.6;2.5;;;;;;;2.7;100.0;102250;;;;
2022/12/27 07:41:01;;;;;;;2.6;2.5;;;;;;;2.7;100.0;102250;;;;
2022/12/27 07:42:08;;;;;;;2.6;2.5;;;;;;;2.7;100.0;102250;;;;
2022/12/27 07:43:00;;;;;;;2.6;2.5;;;;;;;2.7;100.0;102250;;;;
2022/12/27 07:44:01;;;;;;;2.6;2.5;;;;;;;2.7;100.0;102250;;;;
2022/12/27 07:45:00;;;;;;;2.4;2.4;;;;;;;2.7;100.0;102250;;;;
2022/12/27 07:46:04;;;;;;;2.4;2.4;;;;;;;2.7;100.0;102250;;;;
2022/12/27 07:47:01;;;;;;;2.4;2.4;;;;;;;2.7;100.0;102250;;;;
2022/12/27 07:48:00;;;;;;;2.4;2.4;;;;;;;2.6;100.0;102250;;;;
2022/12/27 07:49:00;;;;;;;2.4;2.4;;;;;;;2.6;100.0;102250;;;;
2022/12/27 07:50:00;;;;;;;2.4;2.4;;;;;;;2.6;100.0;102250;;;;
2022/12/27 07:51:00;;;;;;;2.4;2.4;;;;;;;2.6;100.0;102250;;;;
2022/12/27 07:52:00;;;;;;;2.4;2.4;;;;;;;2.6;100.0;102250;;;;
2022/12/27 07:53:00;;;;;;;2.4;2.4;;;;;;;2.6;100.0;102250;;;;
2022/12/27 07:54:00;;;;;;;2.4;2.4;;;;;;;2.5;100.0;102250;;;;
2022/12/27 07:55:00;;;;;;;2.4;2.4;;;;;;;2.5;100.0;102250;;;;
2022/12/27 07:56:04;;;;;;;2.4;2.4;;;;;;;2.5;100.0;102250;;;;
2022/12/27 07:57:00;;;;;;;2.4;2.4;;;;;;;2.5;100.0;102250;;;;
2022/12/27 07:58:00;;;;;;;2.4;2.4;;;;;;;2.5;100.0;102250;;;;
2022/12/27 07:59:01;;;;;;;2.4;2.4;;;;;;;2.5;100.0;102250;;;;
2022/12/27 08:00:00;;;;;;;2.4;2.4;;;;;;;2.5;100.0;102250;;;;
2022/12/27 08:01:02;;;;;;;2.4;2.4;;;;;;;2.5;100.0;102250;;;;
2022/12/27 08:02:04;;;;;;;2.4;2.4;;;;;;;2.5;100.0;102260;;;;
2022/12/27 08:03:00;;;;;;;2.4;2.4;;;;;;;2.5;100.0;102260;;;;
2022/12/27 08:04:00;;;;;;;2.4;2.4;;;;;;;2.6;100.0;102260;;;;
2022/12/27 08:05:00;;;;;;;2.3;2.3;;;;;;;2.6;100.0;102260;;;;
2022/12/27 08:06:00;;;;;;;2.3;2.3;;;;;;;2.5;100.0;102260;;;;
2022/12/27 08:07:02;;;;;;;2.3;2.3;;;;;;;2.5;100.0;102260;;;;